SCRCR48 LXGB-LXGB

Flight info

Callsign SCRCR48
Flight time 1h 46m
Altitude 20000
Route OAT
Aircraft B350/L-VGDW/C

Departure

Time 2026-04-30 18:40
Airport Gibraltar Airport (LXGB)

Arrival

Time 2026-04-30 20:26
Airport Gibraltar Airport (LXGB)
Time Latitude Longitude Altitude Speed Heading
2026-04-30 18:32 36.14974 -5.34785 15 ft 0 kts 111°
2026-04-30 18:36 36.14973 -5.34783 15 ft 2 kts 104°
2026-04-30 18:36 36.14975 -5.34777 15 ft 0 kts 24°
2026-04-30 18:36 36.15018 -5.34728 15 ft 9 kts 88°
2026-04-30 18:37 36.15020 -5.34674 15 ft 4 kts 73°
2026-04-30 18:37 36.15032 -5.34655 14 ft 0 kts 44°
2026-04-30 18:37 36.15063 -5.34637 14 ft 10 kts 350°
2026-04-30 18:37 36.15132 -5.34605 13 ft 13 kts 77°
2026-04-30 18:38 36.15134 -5.34490 12 ft 14 kts 87°
2026-04-30 18:38 36.15140 -5.34361 12 ft 15 kts 89°
2026-04-30 18:38 36.15145 -5.34230 12 ft 15 kts 86°
2026-04-30 18:38 36.15161 -5.34100 12 ft 16 kts 63°
2026-04-30 18:39 36.15157 -5.34015 12 ft 7 kts 186°
2026-04-30 18:39 36.15149 -5.34043 12 ft 0 kts 270°
2026-04-30 18:39 36.15144 -5.34205 12 ft 64 kts 267°
2026-04-30 18:40 36.15117 -5.35126 155 ft 136 kts 262°
2026-04-30 18:40 36.15039 -5.36405 708 ft 159 kts 260°
2026-04-30 18:40 36.14521 -5.37613 1361 ft 168 kts 226°
2026-04-30 18:40 36.13418 -5.38324 1690 ft 199 kts 186°
2026-04-30 18:41 36.12034 -5.37864 2078 ft 216 kts 158°
2026-04-30 18:41 36.10716 -5.37189 3078 ft 195 kts 159°
2026-04-30 18:41 36.09446 -5.36589 3810 ft 197 kts 160°
2026-04-30 18:41 36.08152 -5.35999 4527 ft 198 kts 160°
2026-04-30 18:42 36.06857 -5.35404 5229 ft 198 kts 160°
2026-04-30 18:42 36.04533 -5.33575 6573 ft 202 kts 145°
2026-04-30 18:42 36.03404 -5.32526 7195 ft 204 kts 145°
2026-04-30 18:45 35.90220 -5.20363 10202 ft 273 kts 144°
2026-04-30 18:45 35.88770 -5.19044 11007 ft 246 kts 145°
2026-04-30 18:45 35.87432 -5.17825 11685 ft 238 kts 145°
2026-04-30 18:46 35.86088 -5.16582 12094 ft 242 kts 145°
2026-04-30 18:46 35.84738 -5.15322 12529 ft 244 kts 145°
2026-04-30 18:46 35.83379 -5.14051 12961 ft 246 kts 145°
2026-04-30 18:46 35.82012 -5.12767 13378 ft 248 kts 145°
2026-04-30 18:47 35.80648 -5.11484 13808 ft 250 kts 145°
2026-04-30 18:47 35.79260 -5.10176 14197 ft 252 kts 145°
2026-04-30 18:47 35.77863 -5.08854 14566 ft 254 kts 145°
2026-04-30 18:47 35.76460 -5.07520 14940 ft 255 kts 145°
2026-04-30 18:48 35.75048 -5.06172 15314 ft 257 kts 145°
2026-04-30 18:48 35.73634 -5.04816 15690 ft 258 kts 145°
2026-04-30 18:48 35.72210 -5.03448 16047 ft 260 kts 145°
2026-04-30 18:48 35.70781 -5.02070 16414 ft 262 kts 145°
2026-04-30 18:49 35.69346 -5.00683 16779 ft 263 kts 145°
2026-04-30 18:49 35.67921 -4.99300 17135 ft 265 kts 145°
2026-04-30 18:49 35.66472 -4.97891 17487 ft 266 kts 145°
2026-04-30 18:49 35.65015 -4.96469 17841 ft 268 kts 145°
2026-04-30 18:50 35.63548 -4.95037 18188 ft 270 kts 145°
2026-04-30 18:50 35.62075 -4.93594 18511 ft 271 kts 145°
2026-04-30 18:50 35.60595 -4.92144 18813 ft 273 kts 145°
2026-04-30 18:50 35.59107 -4.90684 19120 ft 273 kts 145°
2026-04-30 18:51 35.57620 -4.89224 19422 ft 274 kts 145°
2026-04-30 18:51 35.56137 -4.87769 19715 ft 276 kts 145°
2026-04-30 18:51 35.54632 -4.86293 19952 ft 279 kts 145°
2026-04-30 18:51 35.53085 -4.84781 20025 ft 287 kts 146°
2026-04-30 18:52 35.51396 -4.83447 20050 ft 291 kts 155°
2026-04-30 18:52 35.49582 -4.82303 20058 ft 297 kts 156°
2026-04-30 18:52 35.47752 -4.81077 20064 ft 301 kts 153°
2026-04-30 18:52 35.45959 -4.79718 20070 ft 304 kts 151°
2026-04-30 18:53 35.44143 -4.78356 20068 ft 306 kts 152°
2026-04-30 18:53 35.42322 -4.77045 20071 ft 307 kts 153°
2026-04-30 18:53 35.40477 -4.75712 20068 ft 308 kts 152°
2026-04-30 18:53 35.38636 -4.74368 20074 ft 309 kts 152°
2026-04-30 18:54 35.36786 -4.73021 20070 ft 309 kts 152°
2026-04-30 18:54 35.34930 -4.71671 20070 ft 310 kts 152°
2026-04-30 18:54 35.33074 -4.70323 20072 ft 310 kts 153°
2026-04-30 18:54 35.31215 -4.68974 20074 ft 310 kts 152°
2026-04-30 18:55 35.29356 -4.67623 20073 ft 310 kts 152°
2026-04-30 18:55 35.25639 -4.64927 20077 ft 310 kts 152°
2026-04-30 18:55 35.23780 -4.63581 20074 ft 311 kts 152°
2026-04-30 18:56 35.20083 -4.60904 20083 ft 311 kts 152°
2026-04-30 18:56 35.18220 -4.59554 20081 ft 311 kts 152°
2026-04-30 18:56 35.16352 -4.58205 20080 ft 311 kts 152°
2026-04-30 18:57 35.12622 -4.55509 20083 ft 311 kts 152°
2026-04-30 18:57 35.10759 -4.54165 20082 ft 311 kts 152°
2026-04-30 18:57 35.08895 -4.52819 20085 ft 311 kts 152°
2026-04-30 18:58 35.05180 -4.50136 20083 ft 312 kts 152°
2026-04-30 18:58 35.03314 -4.48794 20084 ft 311 kts 152°
2026-04-30 18:58 35.01449 -4.47453 20087 ft 311 kts 152°
2026-04-30 18:59 34.97727 -4.44774 20085 ft 311 kts 152°
2026-04-30 19:00 34.92132 -4.40753 20090 ft 312 kts 152°
2026-04-30 19:00 34.90250 -4.39404 20091 ft 313 kts 152°
2026-04-30 19:00 34.86492 -4.36709 20090 ft 313 kts 152°
2026-04-30 19:01 34.82749 -4.34034 20088 ft 314 kts 152°
2026-04-30 19:01 34.80865 -4.32684 20086 ft 313 kts 152°
2026-04-30 19:02 34.77104 -4.29991 20089 ft 313 kts 152°
2026-04-30 19:02 34.73346 -4.27306 20087 ft 313 kts 152°
2026-04-30 19:03 34.69577 -4.24615 20081 ft 314 kts 152°
2026-04-30 19:03 34.65827 -4.21942 20081 ft 314 kts 152°
2026-04-30 19:04 34.62054 -4.19243 20085 ft 314 kts 150°
2026-04-30 19:04 34.59607 -4.14953 20092 ft 321 kts 101°
2026-04-30 19:05 34.60544 -4.09837 20091 ft 319 kts 52°
2026-04-30 19:05 34.64217 -4.07224 20093 ft 309 kts
2026-04-30 19:06 34.68197 -4.08522 20092 ft 299 kts 323°
2026-04-30 19:06 34.69622 -4.10314 20099 ft 295 kts 298°
2026-04-30 19:06 34.70316 -4.15098 20092 ft 294 kts 258°
2026-04-30 19:07 34.68118 -4.19183 20091 ft 299 kts 217°
2026-04-30 19:07 34.66235 -4.20203 20091 ft 303 kts 195°
2026-04-30 19:08 34.62114 -4.19340 20092 ft 313 kts 150°
2026-04-30 19:08 34.59574 -4.15176 20090 ft 321 kts 102°
2026-04-30 19:08 34.59560 -4.12486 20088 ft 321 kts 77°
2026-04-30 19:09 34.62011 -4.08169 20090 ft 315 kts 29°
2026-04-30 19:09 34.64032 -4.07247 20087 ft 310 kts
2026-04-30 19:09 34.66153 -4.07347 20091 ft 304 kts 343°
2026-04-30 19:10 34.69534 -4.10129 20098 ft 295 kts 300°
2026-04-30 19:10 34.70353 -4.14863 20092 ft 294 kts 260°
2026-04-30 19:11 34.69650 -4.17187 20091 ft 295 kts 239°
2026-04-30 19:11 34.66412 -4.20150 20093 ft 303 kts 197°
2026-04-30 19:11 34.64299 -4.20314 20095 ft 308 kts 174°
2026-04-30 19:12 34.62268 -4.19454 20092 ft 313 kts 151°
2026-04-30 19:12 34.60559 -4.17805 20094 ft 317 kts 130°
2026-04-30 19:12 34.59614 -4.15389 20095 ft 320 kts 104°
2026-04-30 19:13 34.60312 -4.10214 20086 ft 319 kts 55°
2026-04-30 19:13 34.63132 -4.07520 20089 ft 312 kts 16°
2026-04-30 19:13 34.65964 -4.07297 20090 ft 305 kts 345°
2026-04-30 19:14 34.67283 -4.07846 20088 ft 301 kts 330°
2026-04-30 19:14 34.68987 -4.09287 20097 ft 298 kts 312°
2026-04-30 19:14 34.70057 -4.11399 20094 ft 294 kts 290°
2026-04-30 19:14 34.70425 -4.13829 20096 ft 294 kts 269°
2026-04-30 19:15 34.70032 -4.16255 20097 ft 294 kts 248°
2026-04-30 19:15 34.67258 -4.19782 20093 ft 301 kts 206°
2026-04-30 19:15 34.65212 -4.20368 20096 ft 306 kts 184°
2026-04-30 19:16 34.63102 -4.19945 20099 ft 311 kts 161°
2026-04-30 19:16 34.61233 -4.18605 20088 ft 314 kts 143°
2026-04-30 19:16 34.59452 -4.13858 20094 ft 321 kts 90°
2026-04-30 19:17 34.59868 -4.11252 20089 ft 321 kts 66°
2026-04-30 19:17 34.62944 -4.07604 20089 ft 313 kts 18°
2026-04-30 19:17 34.65061 -4.07169 20095 ft 307 kts 355°
2026-04-30 19:18 34.68304 -4.08607 20086 ft 299 kts 322°
2026-04-30 19:18 34.69990 -4.11200 20097 ft 294 kts 291°
2026-04-30 19:18 34.70423 -4.13584 20096 ft 293 kts 271°
2026-04-30 19:19 34.70105 -4.16026 20094 ft 294 kts 250°
2026-04-30 19:19 34.69061 -4.18163 20096 ft 296 kts 229°
2026-04-30 19:19 34.65400 -4.20356 20095 ft 305 kts 186°
2026-04-30 19:20 34.63285 -4.20027 20089 ft 310 kts 164°
2026-04-30 19:20 34.61201 -4.19414 20093 ft 308 kts 175°
2026-04-30 19:20 34.56943 -4.19080 20092 ft 308 kts 180°
2026-04-30 19:21 34.54797 -4.18972 20094 ft 308 kts 180°
2026-04-30 19:21 34.50502 -4.18759 20091 ft 309 kts 180°
2026-04-30 19:22 34.46209 -4.18546 20094 ft 309 kts 180°
2026-04-30 19:22 34.40325 -4.20570 20089 ft 300 kts 218°
2026-04-30 19:23 34.35357 -4.25227 20091 ft 300 kts 220°
2026-04-30 19:24 34.32103 -4.28342 20094 ft 300 kts 220°
2026-04-30 19:24 34.30468 -4.29908 20095 ft 300 kts 220°
2026-04-30 19:24 34.27188 -4.33056 20096 ft 300 kts 220°
2026-04-30 19:25 34.22074 -4.37427 20095 ft 301 kts 216°
2026-04-30 19:26 34.18654 -4.40360 20097 ft 301 kts 217°
2026-04-30 19:26 34.15116 -4.43070 20108 ft 304 kts 200°
2026-04-30 19:26 34.13008 -4.43394 20108 ft 308 kts 178°
2026-04-30 19:27 34.09247 -4.41094 20108 ft 317 kts 131°
2026-04-30 19:27 34.08028 -4.36101 20114 ft 320 kts 82°
2026-04-30 19:28 34.08750 -4.33575 20107 ft 319 kts 57°
2026-04-30 19:28 34.11893 -4.30025 20110 ft 313 kts 16°
2026-04-30 19:29 34.15925 -4.30962 20108 ft 302 kts 323°
2026-04-30 19:29 34.17431 -4.32695 20114 ft 299 kts 304°
2026-04-30 19:30 34.18105 -4.39787 20106 ft 297 kts 246°
2026-04-30 19:30 34.15227 -4.43289 20110 ft 303 kts 204°
2026-04-30 19:31 34.11085 -4.43396 20106 ft 311 kts 161°
2026-04-30 19:31 34.09250 -4.41992 20108 ft 316 kts 137°
2026-04-30 19:31 34.07589 -4.37182 20109 ft 321 kts 89°
2026-04-30 19:32 34.08075 -4.34582 20112 ft 320 kts 64°
2026-04-30 19:32 34.09376 -4.32439 20108 ft 317 kts 41°
2026-04-30 19:32 34.11170 -4.30937 20114 ft 313 kts 19°
2026-04-30 19:32 34.13272 -4.30574 20108 ft 308 kts 354°
2026-04-30 19:33 34.15328 -4.31182 20107 ft 304 kts 332°
2026-04-30 19:33 34.17019 -4.32667 20109 ft 300 kts 310°
2026-04-30 19:33 34.18117 -4.34792 20106 ft 298 kts 289°
2026-04-30 19:33 34.18475 -4.37235 20105 ft 297 kts 268°
2026-04-30 19:34 34.18054 -4.39664 20107 ft 297 kts 247°
2026-04-30 19:34 34.16908 -4.41735 20105 ft 299 kts 226°
2026-04-30 19:34 34.13208 -4.43805 20105 ft 307 kts 184°
2026-04-30 19:35 34.11096 -4.43389 20107 ft 311 kts 161°
2026-04-30 19:35 34.09257 -4.41992 20109 ft 316 kts 137°
2026-04-30 19:35 34.08023 -4.39839 20110 ft 319 kts 113°
2026-04-30 19:35 34.07591 -4.37225 20111 ft 321 kts 89°
2026-04-30 19:36 34.08065 -4.34614 20113 ft 320 kts 64°
2026-04-30 19:36 34.09363 -4.32455 20115 ft 317 kts 41°
2026-04-30 19:36 34.13250 -4.30571 20112 ft 308 kts 355°
2026-04-30 19:37 34.15316 -4.31174 20105 ft 304 kts 332°
2026-04-30 19:37 34.17009 -4.32652 20105 ft 300 kts 311°
2026-04-30 19:37 34.18110 -4.34769 20105 ft 298 kts 289°
2026-04-30 19:37 34.18475 -4.37208 20105 ft 296 kts 269°
2026-04-30 19:38 34.18073 -4.39610 20102 ft 297 kts 248°
2026-04-30 19:38 34.16939 -4.41697 20105 ft 299 kts 226°
2026-04-30 19:38 34.15290 -4.43227 20104 ft 302 kts 207°
2026-04-30 19:38 34.13229 -4.43806 20108 ft 307 kts 184°
2026-04-30 19:39 34.11115 -4.43400 20105 ft 312 kts 161°
2026-04-30 19:39 34.09329 -4.41976 20112 ft 317 kts 133°
2026-04-30 19:39 34.08330 -4.39627 20110 ft 320 kts 102°
2026-04-30 19:39 34.08426 -4.36963 20117 ft 320 kts 71°
2026-04-30 19:40 34.09590 -4.34723 20111 ft 317 kts 40°
2026-04-30 19:40 34.11500 -4.33484 20115 ft 312 kts 12°
2026-04-30 19:40 34.13634 -4.33088 20111 ft 310 kts
2026-04-30 19:40 34.15790 -4.32900 20107 ft 310 kts
2026-04-30 19:41 34.17920 -4.32766 20105 ft 310 kts
2026-04-30 19:41 34.20073 -4.32658 20104 ft 309 kts 358°
2026-04-30 19:41 34.22137 -4.33202 20102 ft 304 kts 333°
2026-04-30 19:41 34.23984 -4.34432 20098 ft 302 kts 327°
2026-04-30 19:42 34.25832 -4.35652 20102 ft 303 kts 332°
2026-04-30 19:42 34.27788 -4.36652 20099 ft 305 kts 337°
2026-04-30 19:42 34.29770 -4.37575 20101 ft 304 kts 335°
2026-04-30 19:42 34.31697 -4.38563 20098 ft 304 kts 334°
2026-04-30 19:43 34.33641 -4.39589 20099 ft 304 kts 334°
2026-04-30 19:43 34.35594 -4.40593 20093 ft 305 kts 335°
2026-04-30 19:43 34.37549 -4.41588 20099 ft 304 kts 335°
2026-04-30 19:44 34.41435 -4.43586 20106 ft 304 kts 334°
2026-04-30 19:44 34.43384 -4.44589 20096 ft 304 kts 334°
2026-04-30 19:44 34.45337 -4.45594 20099 ft 304 kts 334°
2026-04-30 19:44 34.47285 -4.46596 20098 ft 304 kts 334°
2026-04-30 19:45 34.49231 -4.47600 20098 ft 304 kts 334°
2026-04-30 19:45 34.51178 -4.48600 20093 ft 304 kts 334°
2026-04-30 19:45 34.53126 -4.49606 20095 ft 303 kts 334°
2026-04-30 19:45 34.55048 -4.50598 20101 ft 304 kts 334°
2026-04-30 19:46 34.57002 -4.51606 20100 ft 304 kts 334°
2026-04-30 19:46 34.58949 -4.52612 20098 ft 304 kts 334°
2026-04-30 19:46 34.60896 -4.53617 20100 ft 304 kts 334°
2026-04-30 19:46 34.62852 -4.54631 20102 ft 305 kts 334°
2026-04-30 19:47 34.64804 -4.55637 20094 ft 305 kts 334°
2026-04-30 19:47 34.66100 -4.56309 20093 ft 305 kts 334°
2026-04-30 19:47 34.68685 -4.57647 20094 ft 305 kts 334°
2026-04-30 19:47 34.70619 -4.58644 20092 ft 296 kts 334°
2026-04-30 19:48 34.72494 -4.59610 20088 ft 287 kts 334°
2026-04-30 19:48 34.74315 -4.60559 20087 ft 282 kts 333°
2026-04-30 19:48 34.76108 -4.61496 20082 ft 278 kts 333°
2026-04-30 19:48 34.77858 -4.62404 20078 ft 275 kts 334°
2026-04-30 19:49 34.79617 -4.63316 20079 ft 274 kts 334°
2026-04-30 19:49 34.83110 -4.65131 20080 ft 271 kts 333°
2026-04-30 19:49 34.84823 -4.66024 20080 ft 270 kts 333°
2026-04-30 19:50 34.86557 -4.66924 20077 ft 270 kts 333°
2026-04-30 19:50 34.88290 -4.67825 20075 ft 270 kts 333°
2026-04-30 19:50 34.90016 -4.68725 20076 ft 270 kts 333°
2026-04-30 19:50 34.91752 -4.69631 20080 ft 270 kts 333°
2026-04-30 19:51 34.93461 -4.70518 20079 ft 270 kts 333°
2026-04-30 19:51 34.95189 -4.71421 20079 ft 271 kts 333°
2026-04-30 19:51 34.96925 -4.72325 20079 ft 270 kts 333°
2026-04-30 19:51 34.98657 -4.73230 20073 ft 270 kts 333°
2026-04-30 19:52 35.00388 -4.74134 20072 ft 270 kts 333°
2026-04-30 19:52 35.02092 -4.75024 20074 ft 270 kts 333°
2026-04-30 19:52 35.03825 -4.75929 20074 ft 270 kts 333°
2026-04-30 19:52 35.05511 -4.76802 20075 ft 255 kts 333°
2026-04-30 19:53 35.07106 -4.77636 20076 ft 243 kts 333°
2026-04-30 19:53 35.08627 -4.78439 20071 ft 234 kts 333°
2026-04-30 19:53 35.10101 -4.79211 20066 ft 227 kts 333°
2026-04-30 19:53 35.11519 -4.79955 20068 ft 222 kts 332°
2026-04-30 19:54 35.12923 -4.80692 20069 ft 218 kts 332°
2026-04-30 19:54 35.14316 -4.81421 20068 ft 216 kts 332°
2026-04-30 19:54 35.15692 -4.82143 20068 ft 214 kts 332°
2026-04-30 19:54 35.17056 -4.82858 20067 ft 213 kts 332°
2026-04-30 19:55 35.18416 -4.83571 20070 ft 212 kts 332°
2026-04-30 19:55 35.19748 -4.84271 20068 ft 211 kts 332°
2026-04-30 19:55 35.21096 -4.84978 20071 ft 210 kts 332°
2026-04-30 19:55 35.22434 -4.85681 20068 ft 208 kts 332°
2026-04-30 19:56 35.23763 -4.86380 20065 ft 208 kts 332°
2026-04-30 19:56 35.25092 -4.87077 20069 ft 207 kts 332°
2026-04-30 19:56 35.26420 -4.87778 20062 ft 207 kts 332°
2026-04-30 19:56 35.27719 -4.88459 20064 ft 204 kts 332°
2026-04-30 19:57 35.29021 -4.89144 20063 ft 205 kts 332°
2026-04-30 19:57 35.30331 -4.89835 20066 ft 204 kts 332°
2026-04-30 19:57 35.31642 -4.90524 20061 ft 204 kts 332°
2026-04-30 19:57 35.32951 -4.91213 20062 ft 205 kts 332°
2026-04-30 19:58 35.34246 -4.91897 20060 ft 205 kts 332°
2026-04-30 19:58 35.35558 -4.92587 20059 ft 205 kts 332°
2026-04-30 19:58 35.36870 -4.93280 20060 ft 205 kts 332°
2026-04-30 19:58 35.38184 -4.93972 20057 ft 205 kts 332°
2026-04-30 19:59 35.39585 -4.94331 20068 ft 210 kts 356°
2026-04-30 19:59 35.41054 -4.94248 20070 ft 212 kts
2026-04-30 19:59 35.43944 -4.93446 20066 ft 215 kts 12°
2026-04-30 20:00 35.45387 -4.92953 20065 ft 215 kts 11°
2026-04-30 20:00 35.46842 -4.92533 20067 ft 215 kts
2026-04-30 20:00 35.48304 -4.92140 20065 ft 215 kts
2026-04-30 20:00 35.49763 -4.91720 20043 ft 217 kts
2026-04-30 20:01 35.52832 -4.90823 19617 ft 233 kts 10°
2026-04-30 20:01 35.54416 -4.90363 19413 ft 238 kts 10°
2026-04-30 20:01 35.56039 -4.89891 19214 ft 241 kts 10°
2026-04-30 20:02 35.58776 -4.89094 18882 ft 243 kts 10°
2026-04-30 20:02 35.60434 -4.88611 18684 ft 244 kts 10°
2026-04-30 20:03 35.63730 -4.87650 18270 ft 245 kts 10°
2026-04-30 20:03 35.65386 -4.87167 18039 ft 244 kts 10°
2026-04-30 20:03 35.67045 -4.86683 17798 ft 244 kts 10°
2026-04-30 20:03 35.68697 -4.86201 17576 ft 244 kts 10°
2026-04-30 20:04 35.70352 -4.85717 17345 ft 243 kts 10°
2026-04-30 20:04 35.71979 -4.85242 17124 ft 243 kts 10°
2026-04-30 20:04 35.73627 -4.84760 16895 ft 243 kts 10°
2026-04-30 20:05 35.76912 -4.83799 16443 ft 242 kts 11°
2026-04-30 20:05 35.78548 -4.83321 16224 ft 241 kts 11°
2026-04-30 20:05 35.81798 -4.82370 15783 ft 240 kts 11°
2026-04-30 20:06 35.83428 -4.81891 15564 ft 240 kts 11°
2026-04-30 20:06 35.85054 -4.81415 15345 ft 240 kts 11°
2026-04-30 20:06 35.86677 -4.80939 15130 ft 239 kts 11°
2026-04-30 20:06 35.88278 -4.80469 14914 ft 239 kts 11°
2026-04-30 20:07 35.89893 -4.79995 14703 ft 239 kts 11°
2026-04-30 20:07 35.91510 -4.79520 14489 ft 238 kts 11°
2026-04-30 20:07 35.94697 -4.78423 14070 ft 238 kts 30°
2026-04-30 20:08 35.95543 -4.77473 13932 ft 239 kts 53°
2026-04-30 20:08 35.96049 -4.76238 13783 ft 238 kts 76°
2026-04-30 20:08 35.96065 -4.74232 13559 ft 234 kts 108°
2026-04-30 20:08 35.95265 -4.72531 13340 ft 228 kts 138°
2026-04-30 20:09 35.93915 -4.71576 13120 ft 223 kts 168°
2026-04-30 20:09 35.92390 -4.71542 12900 ft 220 kts 191°
2026-04-30 20:09 35.89399 -4.72211 12448 ft 220 kts 192°
2026-04-30 20:10 35.86381 -4.72880 11997 ft 219 kts 191°
2026-04-30 20:10 35.84898 -4.73205 11777 ft 219 kts 191°
2026-04-30 20:10 35.83394 -4.73537 11555 ft 219 kts 191°
2026-04-30 20:11 35.80861 -4.75251 11132 ft 215 kts 237°
2026-04-30 20:11 35.80386 -4.76981 10924 ft 216 kts 265°
2026-04-30 20:11 35.80627 -4.78799 10714 ft 218 kts 292°
2026-04-30 20:12 35.82963 -4.81033 10302 ft 225 kts 351°
2026-04-30 20:12 35.84513 -4.80905 10170 ft 222 kts
2026-04-30 20:12 35.85997 -4.80564 10132 ft 216 kts
2026-04-30 20:13 35.87460 -4.80237 10104 ft 211 kts
2026-04-30 20:13 35.88893 -4.79922 10095 ft 207 kts
2026-04-30 20:13 35.90305 -4.79612 10090 ft 204 kts
2026-04-30 20:13 35.91695 -4.79307 10088 ft 202 kts
2026-04-30 20:14 35.93076 -4.79004 10084 ft 201 kts
2026-04-30 20:14 35.94438 -4.78643 10081 ft 200 kts 21°
2026-04-30 20:14 35.95546 -4.77674 10087 ft 199 kts 49°
2026-04-30 20:14 35.96211 -4.76201 10088 ft 197 kts 76°
2026-04-30 20:15 35.96290 -4.74537 10089 ft 194 kts 102°
2026-04-30 20:15 35.95789 -4.73019 10094 ft 190 kts 128°
2026-04-30 20:15 35.94832 -4.71925 10093 ft 187 kts 152°
2026-04-30 20:15 35.93609 -4.71433 10099 ft 185 kts 176°
2026-04-30 20:16 35.92406 -4.71001 10099 ft 187 kts 141°
2026-04-30 20:16 35.91871 -4.69572 10103 ft 193 kts 89°
2026-04-30 20:16 35.92439 -4.68112 10102 ft 196 kts 38°
2026-04-30 20:16 35.93617 -4.67195 10101 ft 213 kts 30°
2026-04-30 20:17 35.95001 -4.66196 10103 ft 245 kts 30°
2026-04-30 20:17 35.96540 -4.65132 10103 ft 264 kts 22°
2026-04-30 20:17 35.98376 -4.64899 10109 ft 273 kts 346°
2026-04-30 20:17 36.00014 -4.66052 10107 ft 276 kts 310°
2026-04-30 20:18 36.00989 -4.68085 10101 ft 277 kts 292°
2026-04-30 20:18 36.01723 -4.70297 10103 ft 279 kts 290°
2026-04-30 20:18 36.02428 -4.72548 10103 ft 280 kts 289°
2026-04-30 20:18 36.03108 -4.74782 10097 ft 281 kts 289°
2026-04-30 20:19 36.03799 -4.77073 9864 ft 287 kts 289°
2026-04-30 20:19 36.04494 -4.79392 9585 ft 287 kts 289°
2026-04-30 20:19 36.05189 -4.81708 9313 ft 286 kts 289°
2026-04-30 20:19 36.05877 -4.84005 9033 ft 284 kts 289°
2026-04-30 20:20 36.06562 -4.86297 8755 ft 283 kts 289°
2026-04-30 20:20 36.07233 -4.88548 8492 ft 282 kts 289°
2026-04-30 20:20 36.07909 -4.90817 8222 ft 280 kts 289°
2026-04-30 20:20 36.08580 -4.93076 7951 ft 279 kts 289°
2026-04-30 20:21 36.09246 -4.95325 7681 ft 278 kts 289°
2026-04-30 20:21 36.09908 -4.97560 7411 ft 276 kts 289°
2026-04-30 20:21 36.10567 -4.99792 7144 ft 275 kts 289°
2026-04-30 20:21 36.11225 -5.02022 6881 ft 274 kts 289°
2026-04-30 20:22 36.11871 -5.04207 6609 ft 273 kts 289°
2026-04-30 20:22 36.12525 -5.06417 6308 ft 273 kts 289°
2026-04-30 20:22 36.13174 -5.08610 6005 ft 271 kts 289°
2026-04-30 20:22 36.13737 -5.10837 5705 ft 267 kts 279°
2026-04-30 20:23 36.13867 -5.13118 5408 ft 265 kts 270°
2026-04-30 20:23 36.13824 -5.15372 5069 ft 265 kts 268°
2026-04-30 20:23 36.13746 -5.17660 4723 ft 265 kts 267°
2026-04-30 20:23 36.13695 -5.19940 4341 ft 264 kts 271°
2026-04-30 20:24 36.13895 -5.22180 3632 ft 260 kts 278°
2026-04-30 20:24 36.14150 -5.24358 2868 ft 251 kts 278°
2026-04-30 20:24 36.14397 -5.26432 2118 ft 234 kts 278°
2026-04-30 20:24 36.14594 -5.28256 1561 ft 199 kts 276°
2026-04-30 20:25 36.14940 -5.31234 718 ft 144 kts 277°
2026-04-30 20:25 36.15069 -5.32407 403 ft 133 kts 272°
2026-04-30 20:26 36.15133 -5.34537 21 ft 115 kts 264°
2026-04-30 20:26 36.15092 -5.35677 13 ft 27 kts 268°
2026-04-30 20:26 36.15100 -5.35860 13 ft 26 kts 289°
2026-04-30 20:27 36.15091 -5.35786 13 ft 14 kts 93°
2026-04-30 20:27 36.15097 -5.35519 14 ft 16 kts 87°
2026-04-30 20:28 36.15105 -5.35238 16 ft 17 kts 88°
2026-04-30 20:28 36.15121 -5.34834 15 ft 21 kts 97°
2026-04-30 20:29 36.14977 -5.34773 15 ft 0 kts 21°